sensor_id;sensor_type;location;lat;lon;timestamp;temperature;humidity
52381;DHT22;38310;52.796;6.942;2023-04-24T00:00:09;9.70;99.90
52381;DHT22;38310;52.796;6.942;2023-04-24T00:02:36;9.80;99.90
52381;DHT22;38310;52.796;6.942;2023-04-24T00:05:05;9.70;99.90
52381;DHT22;38310;52.796;6.942;2023-04-24T00:07:32;9.60;99.90
52381;DHT22;38310;52.796;6.942;2023-04-24T00:09:57;9.70;99.90
52381;DHT22;38310;52.796;6.942;2023-04-24T00:12:24;9.60;99.90
52381;DHT22;38310;52.796;6.942;2023-04-24T00:14:50;9.60;99.90
52381;DHT22;38310;52.796;6.942;2023-04-24T00:17:16;9.60;99.90
52381;DHT22;38310;52.796;6.942;2023-04-24T00:19:45;9.50;99.90
52381;DHT22;38310;52.796;6.942;2023-04-24T00:22:11;9.50;99.90
52381;DHT22;38310;52.796;6.942;2023-04-24T00:24:39;9.50;99.90
52381;DHT22;38310;52.796;6.942;2023-04-24T00:27:05;9.40;99.90
52381;DHT22;38310;52.796;6.942;2023-04-24T00:29:30;9.30;99.90
52381;DHT22;38310;52.796;6.942;2023-04-24T00:31:56;9.40;99.90
52381;DHT22;38310;52.796;6.942;2023-04-24T00:34:22;9.30;99.90
52381;DHT22;38310;52.796;6.942;2023-04-24T00:36:48;9.30;99.90
52381;DHT22;38310;52.796;6.942;2023-04-24T00:39:18;9.30;99.90
52381;DHT22;38310;52.796;6.942;2023-04-24T00:41:44;9.30;99.90
52381;DHT22;38310;52.796;6.942;2023-04-24T00:44:11;9.30;99.90
52381;DHT22;38310;52.796;6.942;2023-04-24T00:46:37;9.20;99.90
52381;DHT22;38310;52.796;6.942;2023-04-24T00:49:04;9.30;99.90
52381;DHT22;38310;52.796;6.942;2023-04-24T00:51:31;9.30;99.90
52381;DHT22;38310;52.796;6.942;2023-04-24T00:53:58;9.20;99.90
52381;DHT22;38310;52.796;6.942;2023-04-24T00:56:25;9.20;99.90
52381;DHT22;38310;52.796;6.942;2023-04-24T00:58:51;9.20;99.90
52381;DHT22;38310;52.796;6.942;2023-04-24T01:01:20;9.20;99.90
52381;DHT22;38310;52.796;6.942;2023-04-24T01:03:47;8.10;99.90
52381;DHT22;38310;52.796;6.942;2023-04-24T01:06:13;9.20;99.90
52381;DHT22;38310;52.796;6.942;2023-04-24T01:08:40;9.20;99.90
52381;DHT22;38310;52.796;6.942;2023-04-24T01:11:06;9.20;99.90
52381;DHT22;38310;52.796;6.942;2023-04-24T01:13:33;9.20;99.90
52381;DHT22;38310;52.796;6.942;2023-04-24T01:16:00;9.20;99.90
52381;DHT22;38310;52.796;6.942;2023-04-24T01:18:26;9.20;99.90
52381;DHT22;38310;52.796;6.942;2023-04-24T01:20:53;9.20;99.90
52381;DHT22;38310;52.796;6.942;2023-04-24T01:23:21;9.10;99.90
52381;DHT22;38310;52.796;6.942;2023-04-24T01:25:46;9.20;99.90
52381;DHT22;38310;52.796;6.942;2023-04-24T01:28:13;9.10;99.90
52381;DHT22;38310;52.796;6.942;2023-04-24T01:30:39;10.30;99.90
52381;DHT22;38310;52.796;6.942;2023-04-24T01:33:05;9.10;99.90
52381;DHT22;38310;52.796;6.942;2023-04-24T01:35:32;9.10;99.90
52381;DHT22;38310;52.796;6.942;2023-04-24T01:37:58;9.10;99.90
52381;DHT22;38310;52.796;6.942;2023-04-24T01:40:23;9.10;99.90
52381;DHT22;38310;52.796;6.942;2023-04-24T01:42:49;9.10;99.90
52381;DHT22;38310;52.796;6.942;2023-04-24T01:45:15;9.10;99.90
52381;DHT22;38310;52.796;6.942;2023-04-24T01:47:41;9.00;99.90
52381;DHT22;38310;52.796;6.942;2023-04-24T01:50:08;9.10;99.90
52381;DHT22;38310;52.796;6.942;2023-04-24T01:52:34;9.00;99.90
52381;DHT22;38310;52.796;6.942;2023-04-24T01:55:04;9.00;99.90
52381;DHT22;38310;52.796;6.942;2023-04-24T01:57:31;9.00;99.90
52381;DHT22;38310;52.796;6.942;2023-04-24T01:59:57;9.10;99.90
52381;DHT22;38310;52.796;6.942;2023-04-24T02:02:23;9.10;99.90
52381;DHT22;38310;52.796;6.942;2023-04-24T02:04:53;9.00;99.90
52381;DHT22;38310;52.796;6.942;2023-04-24T02:07:20;9.10;99.90
52381;DHT22;38310;52.796;6.942;2023-04-24T02:09:46;9.00;99.90
52381;DHT22;38310;52.796;6.942;2023-04-24T02:12:11;9.00;99.90
52381;DHT22;38310;52.796;6.942;2023-04-24T02:14:37;9.10;99.90
52381;DHT22;38310;52.796;6.942;2023-04-24T02:17:03;9.10;99.90
52381;DHT22;38310;52.796;6.942;2023-04-24T02:19:29;9.10;99.90
52381;DHT22;38310;52.796;6.942;2023-04-24T02:21:54;9.10;99.90
52381;DHT22;38310;52.796;6.942;2023-04-24T02:24:20;9.10;99.90
52381;DHT22;38310;52.796;6.942;2023-04-24T02:26:46;9.10;99.90
52381;DHT22;38310;52.796;6.942;2023-04-24T02:29:11;9.20;99.90
52381;DHT22;38310;52.796;6.942;2023-04-24T02:31:37;9.20;99.90
52381;DHT22;38310;52.796;6.942;2023-04-24T02:34:03;9.30;99.90
52381;DHT22;38310;52.796;6.942;2023-04-24T02:36:28;9.30;99.90
52381;DHT22;38310;52.796;6.942;2023-04-24T02:38:55;9.30;99.90
52381;DHT22;38310;52.796;6.942;2023-04-24T02:41:20;9.30;99.90
52381;DHT22;38310;52.796;6.942;2023-04-24T02:43:46;9.30;99.90
52381;DHT22;38310;52.796;6.942;2023-04-24T02:46:12;9.40;99.90
52381;DHT22;38310;52.796;6.942;2023-04-24T02:48:37;9.30;99.90
52381;DHT22;38310;52.796;6.942;2023-04-24T02:51:03;9.30;99.90
52381;DHT22;38310;52.796;6.942;2023-04-24T02:53:29;9.30;99.90
52381;DHT22;38310;52.796;6.942;2023-04-24T02:55:56;9.30;99.90
52381;DHT22;38310;52.796;6.942;2023-04-24T02:58:22;9.30;99.90
52381;DHT22;38310;52.796;6.942;2023-04-24T03:00:48;9.30;99.90
52381;DHT22;38310;52.796;6.942;2023-04-24T03:03:14;9.30;99.90
52381;DHT22;38310;52.796;6.942;2023-04-24T03:05:40;9.30;99.90
52381;DHT22;38310;52.796;6.942;2023-04-24T03:08:06;9.30;99.90
52381;DHT22;38310;52.796;6.942;2023-04-24T03:10:32;9.30;99.90
52381;DHT22;38310;52.796;6.942;2023-04-24T03:12:58;9.30;99.90
52381;DHT22;38310;52.796;6.942;2023-04-24T03:15:23;9.50;99.90
52381;DHT22;38310;52.796;6.942;2023-04-24T03:17:49;9.20;99.90
52381;DHT22;38310;52.796;6.942;2023-04-24T03:20:15;9.20;99.90
52381;DHT22;38310;52.796;6.942;2023-04-24T03:22:40;9.20;99.90
52381;DHT22;38310;52.796;6.942;2023-04-24T03:25:06;9.10;99.90
52381;DHT22;38310;52.796;6.942;2023-04-24T03:27:34;9.10;99.90
52381;DHT22;38310;52.796;6.942;2023-04-24T03:30:00;9.10;99.90
52381;DHT22;38310;52.796;6.942;2023-04-24T03:32:26;9.10;99.90
52381;DHT22;38310;52.796;6.942;2023-04-24T03:34:52;9.10;99.90
52381;DHT22;38310;52.796;6.942;2023-04-24T03:37:17;9.10;99.90
52381;DHT22;38310;52.796;6.942;2023-04-24T03:39:43;9.00;99.90
52381;DHT22;38310;52.796;6.942;2023-04-24T03:42:09;8.90;99.90
52381;DHT22;38310;52.796;6.942;2023-04-24T03:44:35;9.00;99.90
52381;DHT22;38310;52.796;6.942;2023-04-24T03:47:01;8.90;99.90
52381;DHT22;38310;52.796;6.942;2023-04-24T03:49:27;8.90;99.90
52381;DHT22;38310;52.796;6.942;2023-04-24T03:51:53;8.80;99.90
52381;DHT22;38310;52.796;6.942;2023-04-24T03:54:19;8.80;99.90
52381;DHT22;38310;52.796;6.942;2023-04-24T03:56:45;8.80;99.90
52381;DHT22;38310;52.796;6.942;2023-04-24T03:59:11;8.80;99.90
52381;DHT22;38310;52.796;6.942;2023-04-24T04:01:37;8.90;99.90
52381;DHT22;38310;52.796;6.942;2023-04-24T04:04:03;8.90;99.90
52381;DHT22;38310;52.796;6.942;2023-04-24T04:06:29;8.90;99.90
52381;DHT22;38310;52.796;6.942;2023-04-24T04:08:56;8.80;99.90
52381;DHT22;38310;52.796;6.942;2023-04-24T04:11:22;8.90;99.90
52381;DHT22;38310;52.796;6.942;2023-04-24T04:13:48;8.90;99.90
52381;DHT22;38310;52.796;6.942;2023-04-24T04:16:14;8.90;99.90
52381;DHT22;38310;52.796;6.942;2023-04-24T04:18:42;8.90;99.90
52381;DHT22;38310;52.796;6.942;2023-04-24T04:21:08;9.00;99.90
52381;DHT22;38310;52.796;6.942;2023-04-24T04:23:34;8.90;99.90
52381;DHT22;38310;52.796;6.942;2023-04-24T04:26:00;8.90;99.90
52381;DHT22;38310;52.796;6.942;2023-04-24T04:28:26;8.90;99.90
52381;DHT22;38310;52.796;6.942;2023-04-24T04:30:53;8.90;99.90
52381;DHT22;38310;52.796;6.942;2023-04-24T04:33:23;8.90;99.90
52381;DHT22;38310;52.796;6.942;2023-04-24T04:35:50;8.80;99.90
52381;DHT22;38310;52.796;6.942;2023-04-24T04:38:22;8.80;99.90
52381;DHT22;38310;52.796;6.942;2023-04-24T04:40:48;8.90;99.90
52381;DHT22;38310;52.796;6.942;2023-04-24T04:43:14;9.10;99.90
52381;DHT22;38310;52.796;6.942;2023-04-24T04:45:40;8.80;99.90
52381;DHT22;38310;52.796;6.942;2023-04-24T04:48:09;8.90;99.90
52381;DHT22;38310;52.796;6.942;2023-04-24T04:50:35;8.80;99.90
52381;DHT22;38310;52.796;6.942;2023-04-24T04:53:01;8.80;99.90
52381;DHT22;38310;52.796;6.942;2023-04-24T04:55:27;8.80;99.90
52381;DHT22;38310;52.796;6.942;2023-04-24T04:57:52;8.80;99.90
52381;DHT22;38310;52.796;6.942;2023-04-24T05:00:18;8.80;99.90
52381;DHT22;38310;52.796;6.942;2023-04-24T05:02:44;8.80;99.90
52381;DHT22;38310;52.796;6.942;2023-04-24T05:05:10;8.80;99.90
52381;DHT22;38310;52.796;6.942;2023-04-24T05:07:36;8.90;99.90
52381;DHT22;38310;52.796;6.942;2023-04-24T05:10:02;8.90;99.90
52381;DHT22;38310;52.796;6.942;2023-04-24T05:12:28;8.80;99.90
52381;DHT22;38310;52.796;6.942;2023-04-24T05:14:54;8.80;99.90
52381;DHT22;38310;52.796;6.942;2023-04-24T05:17:19;8.80;99.90
52381;DHT22;38310;52.796;6.942;2023-04-24T05:19:45;8.90;99.90
52381;DHT22;38310;52.796;6.942;2023-04-24T05:22:11;8.90;99.90
52381;DHT22;38310;52.796;6.942;2023-04-24T05:24:38;8.90;99.90
52381;DHT22;38310;52.796;6.942;2023-04-24T05:27:04;8.90;99.90
52381;DHT22;38310;52.796;6.942;2023-04-24T05:29:32;8.90;99.90
52381;DHT22;38310;52.796;6.942;2023-04-24T05:31:59;9.00;99.90
52381;DHT22;38310;52.796;6.942;2023-04-24T05:34:25;9.00;99.90
52381;DHT22;38310;52.796;6.942;2023-04-24T05:36:51;9.00;99.90
52381;DHT22;38310;52.796;6.942;2023-04-24T05:39:17;9.00;99.90
52381;DHT22;38310;52.796;6.942;2023-04-24T05:41:43;9.00;99.90
52381;DHT22;38310;52.796;6.942;2023-04-24T05:44:09;9.00;99.90
52381;DHT22;38310;52.796;6.942;2023-04-24T05:46:35;9.00;99.90
52381;DHT22;38310;52.796;6.942;2023-04-24T05:49:01;9.10;99.90
52381;DHT22;38310;52.796;6.942;2023-04-24T05:51:28;9.00;99.90
52381;DHT22;38310;52.796;6.942;2023-04-24T05:53:54;9.00;99.90
52381;DHT22;38310;52.796;6.942;2023-04-24T05:56:20;9.00;99.90
52381;DHT22;38310;52.796;6.942;2023-04-24T05:58:46;9.00;99.90
52381;DHT22;38310;52.796;6.942;2023-04-24T06:01:13;9.10;99.90
52381;DHT22;38310;52.796;6.942;2023-04-24T06:03:40;9.10;99.90
52381;DHT22;38310;52.796;6.942;2023-04-24T06:06:07;9.10;99.90
52381;DHT22;38310;52.796;6.942;2023-04-24T06:08:34;9.10;99.90
52381;DHT22;38310;52.796;6.942;2023-04-24T06:11:00;9.10;99.90
52381;DHT22;38310;52.796;6.942;2023-04-24T06:13:26;9.10;99.90
52381;DHT22;38310;52.796;6.942;2023-04-24T06:15:52;9.10;99.90
52381;DHT22;38310;52.796;6.942;2023-04-24T06:18:18;8.90;99.90
52381;DHT22;38310;52.796;6.942;2023-04-24T06:20:45;9.00;99.90
52381;DHT22;38310;52.796;6.942;2023-04-24T06:23:11;8.90;99.90
52381;DHT22;38310;52.796;6.942;2023-04-24T06:25:37;8.80;99.90
52381;DHT22;38310;52.796;6.942;2023-04-24T06:28:03;8.90;99.90
52381;DHT22;38310;52.796;6.942;2023-04-24T06:30:29;8.90;99.90
52381;DHT22;38310;52.796;6.942;2023-04-24T06:32:55;8.90;99.90
52381;DHT22;38310;52.796;6.942;2023-04-24T06:35:20;8.90;99.90
52381;DHT22;38310;52.796;6.942;2023-04-24T06:37:46;8.90;99.90
52381;DHT22;38310;52.796;6.942;2023-04-24T06:40:12;8.80;99.90
52381;DHT22;38310;52.796;6.942;2023-04-24T06:42:38;8.90;99.90
52381;DHT22;38310;52.796;6.942;2023-04-24T06:45:04;8.90;99.90
52381;DHT22;38310;52.796;6.942;2023-04-24T06:47:30;8.80;99.90
52381;DHT22;38310;52.796;6.942;2023-04-24T06:49:56;8.80;99.90
52381;DHT22;38310;52.796;6.942;2023-04-24T06:52:22;8.90;99.90
52381;DHT22;38310;52.796;6.942;2023-04-24T06:54:49;8.80;99.90
52381;DHT22;38310;52.796;6.942;2023-04-24T06:57:15;8.80;99.90
52381;DHT22;38310;52.796;6.942;2023-04-24T06:59:43;8.70;99.90
52381;DHT22;38310;52.796;6.942;2023-04-24T07:02:09;8.70;99.90
52381;DHT22;38310;52.796;6.942;2023-04-24T07:04:35;7.50;99.90
52381;DHT22;38310;52.796;6.942;2023-04-24T07:07:00;8.70;99.90
52381;DHT22;38310;52.796;6.942;2023-04-24T07:09:26;8.70;99.90
52381;DHT22;38310;52.796;6.942;2023-04-24T07:11:53;8.70;99.90
52381;DHT22;38310;52.796;6.942;2023-04-24T07:14:19;8.70;99.90
52381;DHT22;38310;52.796;6.942;2023-04-24T07:16:46;8.70;99.90
52381;DHT22;38310;52.796;6.942;2023-04-24T07:19:12;8.80;99.90
52381;DHT22;38310;52.796;6.942;2023-04-24T07:21:38;8.80;99.90
52381;DHT22;38310;52.796;6.942;2023-04-24T07:24:04;8.70;99.90
52381;DHT22;38310;52.796;6.942;2023-04-24T07:26:30;8.70;99.90
52381;DHT22;38310;52.796;6.942;2023-04-24T07:28:56;8.70;99.90
52381;DHT22;38310;52.796;6.942;2023-04-24T07:31:22;8.80;99.90
52381;DHT22;38310;52.796;6.942;2023-04-24T07:33:48;8.70;99.90
52381;DHT22;38310;52.796;6.942;2023-04-24T07:36:14;8.80;99.90
52381;DHT22;38310;52.796;6.942;2023-04-24T07:38:47;8.80;99.90
52381;DHT22;38310;52.796;6.942;2023-04-24T07:41:13;8.80;99.90
52381;DHT22;38310;52.796;6.942;2023-04-24T07:43:40;8.90;99.90
52381;DHT22;38310;52.796;6.942;2023-04-24T07:46:06;9.00;99.90
52381;DHT22;38310;52.796;6.942;2023-04-24T07:48:32;9.10;99.90
52381;DHT22;38310;52.796;6.942;2023-04-24T07:50:58;9.10;99.90
52381;DHT22;38310;52.796;6.942;2023-04-24T07:53:24;9.20;99.90
52381;DHT22;38310;52.796;6.942;2023-04-24T07:55:49;9.20;99.90
52381;DHT22;38310;52.796;6.942;2023-04-24T07:58:15;9.30;99.90
52381;DHT22;38310;52.796;6.942;2023-04-24T08:00:41;9.40;99.90
52381;DHT22;38310;52.796;6.942;2023-04-24T08:03:07;9.40;99.90
52381;DHT22;38310;52.796;6.942;2023-04-24T08:05:32;9.50;99.90
52381;DHT22;38310;52.796;6.942;2023-04-24T08:07:58;9.50;99.90
52381;DHT22;38310;52.796;6.942;2023-04-24T08:10:24;9.50;99.90
52381;DHT22;38310;52.796;6.942;2023-04-24T08:12:50;9.60;99.90
52381;DHT22;38310;52.796;6.942;2023-04-24T08:15:16;9.60;99.90
52381;DHT22;38310;52.796;6.942;2023-04-24T08:17:42;9.60;99.90
52381;DHT22;38310;52.796;6.942;2023-04-24T08:20:09;9.60;99.90
52381;DHT22;38310;52.796;6.942;2023-04-24T08:22:42;9.70;99.90
52381;DHT22;38310;52.796;6.942;2023-04-24T08:25:09;9.70;99.90
52381;DHT22;38310;52.796;6.942;2023-04-24T08:27:35;9.60;99.90
52381;DHT22;38310;52.796;6.942;2023-04-24T08:30:03;9.60;99.90
52381;DHT22;38310;52.796;6.942;2023-04-24T08:32:29;9.70;99.90
52381;DHT22;38310;52.796;6.942;2023-04-24T08:34:58;9.70;99.90
52381;DHT22;38310;52.796;6.942;2023-04-24T08:37:26;9.70;99.90
52381;DHT22;38310;52.796;6.942;2023-04-24T08:39:52;9.70;99.90
52381;DHT22;38310;52.796;6.942;2023-04-24T08:42:19;9.70;99.90
52381;DHT22;38310;52.796;6.942;2023-04-24T08:44:45;9.70;99.90
52381;DHT22;38310;52.796;6.942;2023-04-24T08:47:12;9.70;99.90
52381;DHT22;38310;52.796;6.942;2023-04-24T08:49:38;9.70;99.90
52381;DHT22;38310;52.796;6.942;2023-04-24T08:52:07;9.60;99.90
52381;DHT22;38310;52.796;6.942;2023-04-24T08:54:36;9.60;99.90
52381;DHT22;38310;52.796;6.942;2023-04-24T08:57:06;9.60;99.90
52381;DHT22;38310;52.796;6.942;2023-04-24T08:59:33;9.60;99.90
52381;DHT22;38310;52.796;6.942;2023-04-24T09:02:03;9.60;99.90
52381;DHT22;38310;52.796;6.942;2023-04-24T09:04:29;9.70;99.90
52381;DHT22;38310;52.796;6.942;2023-04-24T09:06:57;9.60;99.90
52381;DHT22;38310;52.796;6.942;2023-04-24T09:09:24;9.60;99.90
52381;DHT22;38310;52.796;6.942;2023-04-24T09:11:50;9.60;99.90
52381;DHT22;38310;52.796;6.942;2023-04-24T09:14:17;9.60;99.90
52381;DHT22;38310;52.796;6.942;2023-04-24T09:16:43;9.60;99.90
52381;DHT22;38310;52.796;6.942;2023-04-24T09:19:08;9.60;99.90
52381;DHT22;38310;52.796;6.942;2023-04-24T09:21:35;9.60;99.90
52381;DHT22;38310;52.796;6.942;2023-04-24T09:24:06;9.60;99.90
52381;DHT22;38310;52.796;6.942;2023-04-24T09:26:35;9.60;99.90
52381;DHT22;38310;52.796;6.942;2023-04-24T09:29:02;9.50;99.90
52381;DHT22;38310;52.796;6.942;2023-04-24T09:31:30;9.50;99.90
52381;DHT22;38310;52.796;6.942;2023-04-24T09:34:02;9.50;99.90
52381;DHT22;38310;52.796;6.942;2023-04-24T09:36:39;9.60;99.90
52381;DHT22;38310;52.796;6.942;2023-04-24T09:39:10;9.60;99.90
52381;DHT22;38310;52.796;6.942;2023-04-24T09:41:58;9.60;99.90
52381;DHT22;38310;52.796;6.942;2023-04-24T09:44:27;9.60;99.90
52381;DHT22;38310;52.796;6.942;2023-04-24T09:46:55;9.60;99.90
52381;DHT22;38310;52.796;6.942;2023-04-24T09:51:50;9.50;99.90
52381;DHT22;38310;52.796;6.942;2023-04-24T09:54:20;9.40;99.90
52381;DHT22;38310;52.796;6.942;2023-04-24T09:56:50;9.30;99.90
52381;DHT22;38310;52.796;6.942;2023-04-24T09:59:18;9.30;99.90
52381;DHT22;38310;52.796;6.942;2023-04-24T10:01:43;9.30;99.90
52381;DHT22;38310;52.796;6.942;2023-04-24T10:04:25;9.20;99.90
52381;DHT22;38310;52.796;6.942;2023-04-24T10:06:53;9.20;99.90
52381;DHT22;38310;52.796;6.942;2023-04-24T10:09:21;9.20;99.90
52381;DHT22;38310;52.796;6.942;2023-04-24T10:11:48;9.20;99.90
52381;DHT22;38310;52.796;6.942;2023-04-24T10:14:22;9.20;99.90
52381;DHT22;38310;52.796;6.942;2023-04-24T10:16:48;9.20;99.90
52381;DHT22;38310;52.796;6.942;2023-04-24T10:19:15;9.10;99.90
52381;DHT22;38310;52.796;6.942;2023-04-24T10:21:43;9.10;99.90
52381;DHT22;38310;52.796;6.942;2023-04-24T10:24:13;9.10;99.90
52381;DHT22;38310;52.796;6.942;2023-04-24T10:26:40;9.10;99.90
52381;DHT22;38310;52.796;6.942;2023-04-24T10:29:06;9.10;99.90
52381;DHT22;38310;52.796;6.942;2023-04-24T10:31:36;9.10;99.90
52381;DHT22;38310;52.796;6.942;2023-04-24T10:34:06;10.10;99.90
52381;DHT22;38310;52.796;6.942;2023-04-24T10:36:41;9.20;99.90
52381;DHT22;38310;52.796;6.942;2023-04-24T10:39:13;9.10;99.90
52381;DHT22;38310;52.796;6.942;2023-04-24T10:41:40;9.10;99.90
52381;DHT22;38310;52.796;6.942;2023-04-24T10:44:07;9.10;99.90
52381;DHT22;38310;52.796;6.942;2023-04-24T10:46:34;9.10;99.90
52381;DHT22;38310;52.796;6.942;2023-04-24T10:49:03;9.10;99.90
52381;DHT22;38310;52.796;6.942;2023-04-24T10:51:50;9.20;99.90
52381;DHT22;38310;52.796;6.942;2023-04-24T10:54:33;9.20;99.90
52381;DHT22;38310;52.796;6.942;2023-04-24T10:59:44;9.20;99.90
52381;DHT22;38310;52.796;6.942;2023-04-24T11:02:10;9.30;99.90
52381;DHT22;38310;52.796;6.942;2023-04-24T11:04:36;9.30;99.90
52381;DHT22;38310;52.796;6.942;2023-04-24T11:07:04;9.20;99.90
52381;DHT22;38310;52.796;6.942;2023-04-24T11:09:31;9.20;99.90
52381;DHT22;38310;52.796;6.942;2023-04-24T11:12:08;9.30;99.90
52381;DHT22;38310;52.796;6.942;2023-04-24T11:15:10;9.20;99.90
52381;DHT22;38310;52.796;6.942;2023-04-24T11:17:42;9.20;99.90
52381;DHT22;38310;52.796;6.942;2023-04-24T11:20:11;9.10;99.90
52381;DHT22;38310;52.796;6.942;2023-04-24T11:22:40;9.10;99.90
52381;DHT22;38310;52.796;6.942;2023-04-24T11:25:06;9.00;99.90
52381;DHT22;38310;52.796;6.942;2023-04-24T11:27:39;9.00;99.90
52381;DHT22;38310;52.796;6.942;2023-04-24T11:30:06;9.00;99.90
52381;DHT22;38310;52.796;6.942;2023-04-24T11:32:42;9.00;99.90
52381;DHT22;38310;52.796;6.942;2023-04-24T11:39:59;9.20;99.90
52381;DHT22;38310;52.796;6.942;2023-04-24T11:42:25;9.20;99.90
52381;DHT22;38310;52.796;6.942;2023-04-24T11:44:55;9.20;99.90
52381;DHT22;38310;52.796;6.942;2023-04-24T11:47:28;9.20;99.90
52381;DHT22;38310;52.796;6.942;2023-04-24T11:49:54;9.20;99.90
52381;DHT22;38310;52.796;6.942;2023-04-24T11:52:19;9.10;99.90
52381;DHT22;38310;52.796;6.942;2023-04-24T11:54:51;9.10;99.90
52381;DHT22;38310;52.796;6.942;2023-04-24T11:57:19;9.00;99.90
52381;DHT22;38310;52.796;6.942;2023-04-24T11:59:46;9.00;99.90
52381;DHT22;38310;52.796;6.942;2023-04-24T12:02:30;9.00;99.90
52381;DHT22;38310;52.796;6.942;2023-04-24T12:04:56;9.00;99.90
52381;DHT22;38310;52.796;6.942;2023-04-24T12:07:23;9.00;99.90
52381;DHT22;38310;52.796;6.942;2023-04-24T12:09:59;9.00;99.90
52381;DHT22;38310;52.796;6.942;2023-04-24T12:12:26;9.10;99.90
52381;DHT22;38310;52.796;6.942;2023-04-24T12:14:57;9.40;99.90
52381;DHT22;38310;52.796;6.942;2023-04-24T12:17:28;9.20;99.90
52381;DHT22;38310;52.796;6.942;2023-04-24T12:20:01;9.30;99.90
52381;DHT22;38310;52.796;6.942;2023-04-24T12:22:36;9.40;99.90
52381;DHT22;38310;52.796;6.942;2023-04-24T12:25:10;9.40;99.90
52381;DHT22;38310;52.796;6.942;2023-04-24T12:27:36;9.40;99.90
52381;DHT22;38310;52.796;6.942;2023-04-24T12:30:04;9.40;99.90
52381;DHT22;38310;52.796;6.942;2023-04-24T12:32:30;9.40;99.90
52381;DHT22;38310;52.796;6.942;2023-04-24T12:34:56;9.30;99.90
52381;DHT22;38310;52.796;6.942;2023-04-24T12:37:26;9.40;99.90
52381;DHT22;38310;52.796;6.942;2023-04-24T12:42:28;9.30;99.90
52381;DHT22;38310;52.796;6.942;2023-04-24T12:44:59;9.30;99.90
52381;DHT22;38310;52.796;6.942;2023-04-24T12:47:26;9.30;99.90
52381;DHT22;38310;52.796;6.942;2023-04-24T12:49:52;9.20;99.90
52381;DHT22;38310;52.796;6.942;2023-04-24T12:52:22;9.20;99.90
52381;DHT22;38310;52.796;6.942;2023-04-24T12:54:50;9.10;99.90
52381;DHT22;38310;52.796;6.942;2023-04-24T12:57:17;9.20;99.90
52381;DHT22;38310;52.796;6.942;2023-04-24T12:59:43;9.20;99.90
52381;DHT22;38310;52.796;6.942;2023-04-24T13:02:09;9.20;99.90
52381;DHT22;38310;52.796;6.942;2023-04-24T13:04:35;9.20;99.90
52381;DHT22;38310;52.796;6.942;2023-04-24T13:07:01;9.20;99.90
52381;DHT22;38310;52.796;6.942;2023-04-24T13:09:27;9.20;99.90
52381;DHT22;38310;52.796;6.942;2023-04-24T13:11:53;9.20;99.90
52381;DHT22;38310;52.796;6.942;2023-04-24T13:14:19;9.30;99.90
52381;DHT22;38310;52.796;6.942;2023-04-24T13:16:45;9.30;99.90
52381;DHT22;38310;52.796;6.942;2023-04-24T13:19:11;9.40;99.90
52381;DHT22;38310;52.796;6.942;2023-04-24T13:21:36;9.50;99.90
52381;DHT22;38310;52.796;6.942;2023-04-24T13:24:02;9.60;99.90
52381;DHT22;38310;52.796;6.942;2023-04-24T13:26:30;9.70;99.90
52381;DHT22;38310;52.796;6.942;2023-04-24T13:28:56;9.70;99.90
52381;DHT22;38310;52.796;6.942;2023-04-24T13:31:21;9.80;99.90
52381;DHT22;38310;52.796;6.942;2023-04-24T13:33:48;9.80;99.90
52381;DHT22;38310;52.796;6.942;2023-04-24T13:36:13;9.80;99.90
52381;DHT22;38310;52.796;6.942;2023-04-24T13:38:39;9.70;99.90
52381;DHT22;38310;52.796;6.942;2023-04-24T13:41:05;9.60;99.90
52381;DHT22;38310;52.796;6.942;2023-04-24T13:43:30;9.50;99.90
52381;DHT22;38310;52.796;6.942;2023-04-24T13:45:56;9.30;99.90
52381;DHT22;38310;52.796;6.942;2023-04-24T13:48:22;9.30;99.90
52381;DHT22;38310;52.796;6.942;2023-04-24T13:50:47;9.20;99.90
52381;DHT22;38310;52.796;6.942;2023-04-24T13:53:15;9.20;99.90
52381;DHT22;38310;52.796;6.942;2023-04-24T13:55:40;9.20;99.90
52381;DHT22;38310;52.796;6.942;2023-04-24T13:58:06;9.20;99.90
52381;DHT22;38310;52.796;6.942;2023-04-24T14:00:33;9.30;99.90
52381;DHT22;38310;52.796;6.942;2023-04-24T14:02:59;9.40;99.90
52381;DHT22;38310;52.796;6.942;2023-04-24T14:05:25;9.40;99.90
52381;DHT22;38310;52.796;6.942;2023-04-24T14:07:51;9.50;99.90
52381;DHT22;38310;52.796;6.942;2023-04-24T14:10:17;9.50;99.90
52381;DHT22;38310;52.796;6.942;2023-04-24T14:12:43;10.00;99.90
52381;DHT22;38310;52.796;6.942;2023-04-24T14:15:08;9.40;99.90
52381;DHT22;38310;52.796;6.942;2023-04-24T14:17:35;9.40;99.90
52381;DHT22;38310;52.796;6.942;2023-04-24T14:20:01;9.30;99.90
52381;DHT22;38310;52.796;6.942;2023-04-24T14:22:27;9.20;99.90
52381;DHT22;38310;52.796;6.942;2023-04-24T14:24:52;9.20;99.90
52381;DHT22;38310;52.796;6.942;2023-04-24T14:27:18;9.00;99.90
52381;DHT22;38310;52.796;6.942;2023-04-24T14:29:44;8.90;99.90
52381;DHT22;38310;52.796;6.942;2023-04-24T14:32:10;8.90;99.90
52381;DHT22;38310;52.796;6.942;2023-04-24T14:34:36;8.80;99.90
52381;DHT22;38310;52.796;6.942;2023-04-24T14:37:02;8.80;99.90
52381;DHT22;38310;52.796;6.942;2023-04-24T14:39:28;8.80;99.90
52381;DHT22;38310;52.796;6.942;2023-04-24T14:41:54;8.60;99.90
52381;DHT22;38310;52.796;6.942;2023-04-24T14:44:20;8.80;99.90
52381;DHT22;38310;52.796;6.942;2023-04-24T14:46:46;8.80;99.90
52381;DHT22;38310;52.796;6.942;2023-04-24T14:49:12;8.80;99.90
52381;DHT22;38310;52.796;6.942;2023-04-24T14:51:38;8.80;99.90
52381;DHT22;38310;52.796;6.942;2023-04-24T14:54:03;9.00;99.90
52381;DHT22;38310;52.796;6.942;2023-04-24T14:56:29;8.90;99.90
52381;DHT22;38310;52.796;6.942;2023-04-24T14:58:55;9.00;99.90
52381;DHT22;38310;52.796;6.942;2023-04-24T15:01:21;9.10;99.90
52381;DHT22;38310;52.796;6.942;2023-04-24T15:03:47;9.10;99.90
52381;DHT22;38310;52.796;6.942;2023-04-24T15:06:12;9.00;99.90
52381;DHT22;38310;52.796;6.942;2023-04-24T15:08:38;9.00;99.90
52381;DHT22;38310;52.796;6.942;2023-04-24T15:11:04;9.10;99.90
52381;DHT22;38310;52.796;6.942;2023-04-24T15:13:30;9.00;99.90
52381;DHT22;38310;52.796;6.942;2023-04-24T15:15:56;9.00;99.90
52381;DHT22;38310;52.796;6.942;2023-04-24T15:18:22;9.00;99.90
52381;DHT22;38310;52.796;6.942;2023-04-24T15:20:47;9.00;99.90
52381;DHT22;38310;52.796;6.942;2023-04-24T15:23:13;9.00;99.90
52381;DHT22;38310;52.796;6.942;2023-04-24T15:25:39;9.10;99.90
52381;DHT22;38310;52.796;6.942;2023-04-24T15:28:05;9.10;99.90
52381;DHT22;38310;52.796;6.942;2023-04-24T15:30:31;9.10;99.90
52381;DHT22;38310;52.796;6.942;2023-04-24T15:32:57;9.20;99.90
52381;DHT22;38310;52.796;6.942;2023-04-24T15:35:23;9.30;99.90
52381;DHT22;38310;52.796;6.942;2023-04-24T15:37:49;9.30;99.90
52381;DHT22;38310;52.796;6.942;2023-04-24T15:40:14;9.30;99.90
52381;DHT22;38310;52.796;6.942;2023-04-24T15:42:42;9.30;99.90
52381;DHT22;38310;52.796;6.942;2023-04-24T15:45:09;9.40;99.90
52381;DHT22;38310;52.796;6.942;2023-04-24T15:47:35;9.40;99.90
52381;DHT22;38310;52.796;6.942;2023-04-24T15:50:02;9.40;99.90
52381;DHT22;38310;52.796;6.942;2023-04-24T15:52:28;9.30;99.90
52381;DHT22;38310;52.796;6.942;2023-04-24T15:54:54;9.60;99.90